Time;durP1;ratioP1;P1;durP2;ratioP2;P2;SDS_P1;SDS_P2;PMS_P1;PMS_P2;Temp;Humidity;BMP_temperature;BMP_pressure;BME280_temperature;BME280_humidity;BME280_pressure;Samples;Min_cycle;Max_cycle;Signal;HPM_P1;HPM_P2
2021/04/26 00:00:14;;;;;;;12.60;7.33;;;;;;;1.91;57.95;100460.63;115340;1200;103031;-78
2021/04/26 00:03:02;;;;;;;12.93;6.80;;;;;;;1.89;58.33;100459.76;115401;1199;103105;-78
2021/04/26 00:05:29;;;;;;;12.27;6.87;;;;;;;1.85;58.61;100466.59;115381;1200;101925;-78
2021/04/26 00:07:57;;;;;;;13.97;7.27;;;;;;;1.84;58.49;100467.45;115334;1199;103024;-77
2021/04/26 00:10:25;;;;;;;12.93;7.37;;;;;;;1.85;58.67;100469.17;115305;1200;103179;-79
2021/04/26 00:12:53;;;;;;;13.97;7.47;;;;;;;1.85;59.05;100469.17;115356;1200;103192;-78
2021/04/26 00:15:40;;;;;;;;;;;;;;;1.85;58.73;100473.45;115627;1204;103446;-77
2021/04/26 00:18:07;;;;;;;13.60;7.07;;;;;;;1.84;59.70;100467.45;115448;1199;103060;-78
2021/04/26 00:20:35;;;;;;;12.55;7.13;;;;;;;1.85;59.55;100473.45;115372;1199;104351;-78
2021/04/26 00:23:03;;;;;;;11.60;7.35;;;;;;;1.81;59.31;100475.15;115308;1199;103165;-78
2021/04/26 00:25:31;;;;;;;12.70;7.37;;;;;;;1.80;59.52;100471.72;115387;1199;103086;-79
2021/04/26 00:27:59;;;;;;;14.33;7.70;;;;;;;1.79;58.80;100462.25;115346;1199;102987;-78
2021/04/26 00:30:27;;;;;;;13.67;7.60;;;;;;;1.79;59.66;100462.25;115336;1199;103133;-77
2021/04/26 00:32:55;;;;;;;12.10;7.67;;;;;;;1.74;59.69;100455.36;115346;1197;102982;-78
2021/04/26 00:35:23;;;;;;;15.63;7.63;;;;;;;1.71;59.80;100461.34;115324;1199;103139;-78
2021/04/26 00:37:51;;;;;;;15.47;8.00;;;;;;;1.67;59.93;100457.05;115361;1199;103115;-78
2021/04/26 00:40:21;;;;;;;12.57;7.37;;;;;;;1.69;59.54;100457.91;115464;1199;103095;-78
2021/04/26 00:42:50;;;;;;;13.77;7.83;;;;;;;1.72;59.46;100460.50;115383;1197;103095;-78
2021/04/26 00:45:20;;;;;;;13.60;7.43;;;;;;;1.76;59.90;100463.95;115499;1200;103285;-78
2021/04/26 00:47:49;;;;;;;16.15;8.00;;;;;;;1.79;60.10;100458.81;115328;1200;103187;-78
2021/04/26 00:50:20;;;;;;;16.53;8.07;;;;;;;1.80;59.63;100461.43;115378;1199;103022;-78
2021/04/26 00:52:49;;;;;;;16.13;8.37;;;;;;;1.82;59.95;100453.72;115381;1199;101813;-78
2021/04/26 00:55:20;;;;;;;15.53;8.77;;;;;;;1.81;59.55;100446.86;115359;1197;103145;-79
2021/04/26 00:57:48;;;;;;;13.53;7.63;;;;;;;1.83;60.20;100437.44;115397;1200;103168;-77
2021/04/26 01:00:16;;;;;;;14.60;8.27;;;;;;;1.84;59.78;100435.73;115306;1198;103028;-79
2021/04/26 01:02:44;;;;;;;17.23;7.67;;;;;;;1.83;59.94;100434.02;115626;1198;103053;-77
2021/04/26 01:05:17;;;;;;;12.33;7.23;;;;;;;1.84;59.92;100435.73;115379;1199;103558;-79
2021/04/26 01:07:45;;;;;;;14.97;7.97;;;;;;;1.81;60.10;100432.29;115408;1199;103031;-78
2021/04/26 01:10:19;;;;;;;12.83;7.83;;;;;;;1.76;59.49;100444.23;115333;1199;103128;-77
2021/04/26 01:13:14;;;;;;;15.60;8.57;;;;;;;1.74;60.30;100447.65;115362;1199;103235;-78
2021/04/26 01:15:59;;;;;;;13.03;7.27;;;;;;;1.71;59.73;100448.50;115352;1199;103105;-78
2021/04/26 01:18:34;;;;;;;14.97;8.30;;;;;;;1.67;59.96;100448.47;115384;1200;103012;-79
2021/04/26 01:21:43;;;;;;;15.60;7.90;;;;;;;1.64;60.16;100438.17;115515;1200;103027;-79
2021/04/26 01:24:47;;;;;;;16.07;8.43;;;;;;;1.63;60.54;100434.74;115090;1203;103513;-79
2021/04/26 01:27:36;;;;;;;14.13;7.43;;;;;;;1.64;60.23;100433.03;114991;1203;103408;-80
2021/04/26 01:30:18;;;;;;;14.17;8.03;;;;;;;1.65;60.93;100435.61;115105;1203;103014;-78
2021/04/26 01:33:24;;;;;;;14.15;7.70;;;;;;;1.65;60.35;100430.47;115099;1203;103207;-78
2021/04/26 01:35:58;;;;;;;12.85;7.70;;;;;;;1.61;60.76;100428.70;115128;1202;103354;-78
2021/04/26 01:38:35;;;;;;;13.00;8.00;;;;;;;1.59;60.71;100438.11;115026;1202;103030;-79
2021/04/26 01:41:04;;;;;;;13.97;7.80;;;;;;;1.59;60.71;100430.41;115085;1203;103147;-77
2021/04/26 01:43:31;;;;;;;16.60;8.30;;;;;;;1.54;60.79;100426.09;115107;1202;103008;-79
2021/04/26 01:46:03;;;;;;;14.30;8.00;;;;;;;1.53;60.92;100425.23;115157;1202;103095;-80
2021/04/26 01:48:37;;;;;;;14.40;8.10;;;;;;;1.55;60.89;100428.66;115098;1202;103133;-77
2021/04/26 01:51:06;;;;;;;15.60;8.00;;;;;;;1.57;60.96;100432.11;114995;1202;102046;-79
2021/04/26 01:53:36;;;;;;;15.83;8.43;;;;;;;1.60;61.05;100432.13;115024;1202;103111;-78
2021/04/26 01:56:09;;;;;;;17.83;8.60;;;;;;;1.62;60.97;100430.45;115049;1202;103633;-78
2021/04/26 01:58:49;;;;;;;16.20;9.23;;;;;;;1.62;61.07;100430.45;115140;1199;103280;-78
2021/04/26 02:01:19;;;;;;;17.67;9.20;;;;;;;1.63;61.19;100421.88;115372;1199;103188;-79
2021/04/26 02:03:57;;;;;;;16.77;9.40;;;;;;;1.64;60.70;100422.75;115439;1199;104310;-78
2021/04/26 02:06:56;;;;;;;;;;;;;;;1.66;60.94;100427.05;115400;1205;102224;-79
2021/04/26 02:09:44;;;;;;;19.03;9.30;;;;;;;1.66;60.84;100432.19;115465;1199;103181;-78
2021/04/26 02:12:14;;;;;;;17.73;9.23;;;;;;;1.66;61.26;100426.19;115413;1199;104076;-78
2021/04/26 02:14:44;;;;;;;17.00;9.60;;;;;;;1.64;61.13;100427.89;115374;1199;103101;-78
2021/04/26 02:17:13;;;;;;;14.77;9.23;;;;;;;1.60;60.93;100420.98;115357;1199;103204;-77
2021/04/26 02:19:43;;;;;;;15.83;9.60;;;;;;;1.60;61.37;100420.98;115333;1199;103255;-77
2021/04/26 02:22:11;;;;;;;18.13;9.97;;;;;;;1.58;61.32;100422.69;115315;1199;103034;-79
2021/04/26 02:25:11;;;;;;;19.20;10.48;;;;;;;1.57;61.34;100410.68;115347;1198;101574;-79
2021/04/26 02:27:39;;;;;;;17.57;10.07;;;;;;;1.59;61.03;100409.84;115377;1200;103070;-79
2021/04/26 02:30:08;;;;;;;16.50;9.77;;;;;;;1.60;61.76;100411.55;115306;1198;102990;-78
2021/04/26 02:32:48;;;;;;;19.13;10.53;;;;;;;1.60;61.55;100411.55;115333;1199;102982;-78
2021/04/26 02:35:49;;;;;;;17.73;10.00;;;;;;;1.60;61.31;100421.84;115359;1199;102995;-78
2021/04/26 02:38:46;;;;;;;20.17;11.03;;;;;;;1.58;61.38;100407.26;115375;1200;103095;-79
2021/04/26 02:41:17;;;;;;;17.93;10.38;;;;;;;1.54;61.25;100414.09;115326;1199;103120;-78
2021/04/26 02:43:53;;;;;;;18.90;10.50;;;;;;;1.55;61.83;100410.67;115387;1199;103107;-78
2021/04/26 02:46:27;;;;;;;18.63;10.23;;;;;;;1.55;61.77;100409.81;115290;1198;103478;-78
2021/04/26 02:48:56;;;;;;;15.63;9.73;;;;;;;1.54;61.79;100403.81;115364;1199;103214;-78
2021/04/26 02:51:29;;;;;;;19.07;9.63;;;;;;;1.55;61.57;100409.81;115324;1199;103950;-78
2021/04/26 02:53:57;;;;;;;15.47;9.00;;;;;;;1.51;61.39;100421.79;115519;1198;103053;-79
2021/04/26 02:56:26;;;;;;;19.50;9.60;;;;;;;1.52;61.83;100413.22;115445;1199;103098;-78
2021/04/26 02:58:56;;;;;;;17.10;9.90;;;;;;;1.51;61.79;100414.94;115318;1200;103171;-78
2021/04/26 03:01:41;;;;;;;16.37;10.00;;;;;;;1.49;61.39;100408.06;115330;1200;103105;-78
2021/04/26 03:04:20;;;;;;;18.27;9.67;;;;;;;1.50;61.34;100404.65;115361;1199;103063;-77
2021/04/26 03:06:51;;;;;;;17.00;10.07;;;;;;;1.51;61.58;100411.51;115385;1199;103002;-79
2021/04/26 03:09:23;;;;;;;18.17;10.07;;;;;;;1.49;61.90;100408.06;115381;1199;103076;-78
2021/04/26 03:11:59;;;;;;;21.58;9.95;;;;;;;1.48;61.34;100412.35;115282;1200;103037;-79
2021/04/26 03:14:39;;;;;;;19.70;10.00;;;;;;;1.47;61.84;100410.63;115340;1199;103094;-78
2021/04/26 03:17:08;;;;;;;16.47;9.43;;;;;;;1.48;61.87;100408.92;115564;1199;103076;-78
2021/04/26 03:19:41;;;;;;;15.47;9.43;;;;;;;1.51;61.75;100399.52;115403;1199;103733;-77
2021/04/26 03:22:10;;;;;;;16.40;8.87;;;;;;;1.50;61.31;100405.51;115332;1198;103105;-78
2021/04/26 03:24:41;;;;;;;16.00;8.80;;;;;;;1.53;60.92;100399.52;115338;1200;103200;-78
2021/04/26 03:27:09;;;;;;;14.97;8.70;;;;;;;1.54;61.35;100398.67;115359;1199;103015;-78
2021/04/26 03:29:38;;;;;;;17.50;8.63;;;;;;;1.57;61.40;100395.26;115426;1198;103172;-79
2021/04/26 03:32:06;;;;;;;13.70;7.83;;;;;;;1.56;60.93;100403.82;115607;1198;103075;-78
2021/04/26 03:34:41;;;;;;;14.20;8.50;;;;;;;1.56;60.71;100409.82;115381;1199;103104;-79
2021/04/26 03:37:18;;;;;;;16.07;9.03;;;;;;;1.57;60.96;100410.68;115345;1199;103133;-79
2021/04/26 03:39:47;;;;;;;13.67;8.50;;;;;;;1.57;60.62;100414.11;115347;1198;103037;-79
2021/04/26 03:42:16;;;;;;;14.27;8.43;;;;;;;1.60;60.70;100418.41;115368;1198;103146;-79
2021/04/26 03:44:45;;;;;;;15.77;8.07;;;;;;;1.57;60.70;100416.68;115593;1200;102016;-78
2021/04/26 03:47:35;;;;;;;14.97;8.00;;;;;;;1.55;60.43;100420.09;115386;1199;102075;-78
2021/04/26 03:50:23;;;;;;;14.53;8.30;;;;;;;1.51;60.89;100416.65;115350;1198;103143;-77
2021/04/26 03:53:09;;;;;;;15.27;7.93;;;;;;;1.53;60.54;100424.37;115387;1199;103089;-79
2021/04/26 03:56:15;;;;;;;13.83;8.47;;;;;;;1.52;60.92;100423.51;115297;1199;103024;-78
2021/04/26 03:58:42;;;;;;;16.00;8.40;;;;;;;1.54;61.12;100426.95;115371;1199;103414;-79
2021/04/26 04:01:09;;;;;;;14.40;7.90;;;;;;;1.56;60.79;100427.81;115327;1200;104879;-78
2021/04/26 04:03:39;;;;;;;14.63;8.13;;;;;;;1.57;60.64;100426.97;115261;1198;103060;-78
2021/04/26 04:06:07;;;;;;;12.53;8.60;;;;;;;1.61;60.85;100422.70;115391;1199;102999;-77
2021/04/26 04:08:37;;;;;;;14.67;8.93;;;;;;;1.64;61.03;100417.60;115585;1200;102861;-76
2021/04/26 04:11:39;;;;;;;13.93;8.07;;;;;;;1.64;60.88;100420.17;115170;1199;103006;-77
2021/04/26 04:14:39;;;;;;;11.50;7.33;;;;;;;1.63;60.64;100424.45;115254;1198;103290;-78
2021/04/26 04:17:07;;;;;;;14.20;7.90;;;;;;;1.63;61.04;100421.88;115371;1199;103031;-78
2021/04/26 04:19:34;;;;;;;13.10;7.60;;;;;;;1.63;60.37;100424.45;115351;1200;103079;-79
2021/04/26 04:22:04;;;;;;;15.25;8.70;;;;;;;1.64;60.88;100426.17;115342;1199;103017;-79
2021/04/26 04:24:32;;;;;;;14.33;7.90;;;;;;;1.68;61.06;100429.63;115376;1199;103037;-78
2021/04/26 04:26:59;;;;;;;14.67;7.97;;;;;;;1.72;60.73;100421.93;115391;1199;104633;-79
2021/04/26 04:29:26;;;;;;;13.70;7.50;;;;;;;1.76;60.96;100426.23;115381;1200;100770;-78
2021/04/26 04:32:00;;;;;;;13.70;7.87;;;;;;;1.83;60.52;100424.58;115403;1199;102912;-78
2021/04/26 04:34:48;;;;;;;13.90;7.53;;;;;;;1.92;60.39;100424.62;115380;1198;103018;-78
2021/04/26 04:37:34;;;;;;;13.97;7.73;;;;;;;2.33;60.30;100435.11;115566;1199;103012;-78
2021/04/26 04:40:20;;;;;;;13.63;7.20;;;;;;;4.00;60.00;100422.38;115399;1198;103124;-79
2021/04/26 04:43:04;;;;;;;14.83;8.13;;;;;;;4.95;58.35;100433.14;115359;1199;103137;-79
2021/04/26 04:45:41;;;;;;;12.80;7.40;;;;;;;6.73;56.95;100431.41;115443;1199;102909;-79
2021/04/26 04:48:47;;;;;;;13.70;7.00;;;;;;;9.16;53.44;100422.62;115420;1199;104200;-78
2021/04/26 04:51:20;;;;;;;11.13;6.50;;;;;;;11.07;50.37;100423.45;115409;1199;103024;-79
2021/04/26 04:53:56;;;;;;;9.20;6.15;;;;;;;12.89;47.60;100417.08;115412;1199;102673;-78
2021/04/26 04:56:29;;;;;;;10.30;6.97;;;;;;;14.58;44.71;100409.10;115366;1197;103038;-79
2021/04/26 04:58:57;;;;;;;9.03;6.03;;;;;;;15.93;41.74;100404.23;115356;1197;104243;-79
2021/04/26 05:01:26;;;;;;;9.27;5.80;;;;;;;17.02;39.40;100405.36;115397;1199;103091;-80
2021/04/26 05:04:11;;;;;;;8.43;5.83;;;;;;;18.19;37.25;100394.14;115387;1198;101462;-79
2021/04/26 05:07:02;;;;;;;7.40;5.13;;;;;;;19.36;34.72;100388.43;115400;1200;103121;-80
2021/04/26 05:10:02;;;;;;;7.93;4.63;;;;;;;20.34;32.70;100396.71;115367;1199;103113;-79
2021/04/26 05:12:48;;;;;;;6.53;4.50;;;;;;;21.31;31.41;100391.47;115608;1198;103407;-79
2021/04/26 05:15:42;;;;;;;7.53;4.23;;;;;;;22.18;29.67;100390.15;115385;1198;103277;-80
2021/04/26 05:18:12;;;;;;;7.03;4.50;;;;;;;22.81;27.85;100388.67;115387;1199;103089;-80
2021/04/26 05:20:41;;;;;;;7.30;4.40;;;;;;;23.47;27.47;100386.77;115378;1200;103063;-80
2021/04/26 05:23:10;;;;;;;6.03;4.07;;;;;;;24.16;26.53;100383.59;115379;1199;103059;-80
2021/04/26 05:25:38;;;;;;;3.70;3.30;;;;;;;24.94;25.10;100384.70;115434;1199;103126;-81
2021/04/26 05:28:06;;;;;;;6.97;5.70;;;;;;;25.39;23.91;100371.70;115428;1199;103111;-80
2021/04/26 05:30:35;;;;;;;5.83;4.07;;;;;;;26.18;23.64;100372.27;115403;1199;100667;-80
2021/04/26 05:33:03;;;;;;;3.33;2.80;;;;;;;26.72;22.19;100380.48;115412;1198;103021;-80
2021/04/26 05:35:49;;;;;;;5.93;3.50;;;;;;;27.35;21.79;100373.31;115463;1199;103120;-81
2021/04/26 05:38:18;;;;;;;6.00;4.50;;;;;;;27.91;20.60;100364.04;115442;1199;103504;-80
2021/04/26 05:40:48;;;;;;;3.73;3.13;;;;;;;28.45;19.61;100374.58;115432;1197;103136;-80
2021/04/26 05:43:17;;;;;;;3.90;2.97;;;;;;;28.89;19.40;100365.34;115411;1199;104294;-80
2021/04/26 05:45:46;;;;;;;4.30;3.00;;;;;;;29.15;18.47;100365.23;115431;1199;101573;-80
2021/04/26 05:48:17;;;;;;;3.97;2.73;;;;;;;29.26;17.88;100361.36;115422;1199;103130;-80
2021/04/26 05:50:44;;;;;;;4.13;2.70;;;;;;;29.34;17.28;100364.06;115548;1199;103152;-80
2021/04/26 05:53:11;;;;;;;3.73;2.80;;;;;;;29.74;17.27;100359.70;115445;1199;102982;-80
2021/04/26 05:55:38;;;;;;;3.03;2.50;;;;;;;30.03;16.90;100362.67;115482;1199;102984;-80
2021/04/26 05:58:05;;;;;;;3.73;2.28;;;;;;;30.22;17.02;100366.85;115670;1197;103254;-81
2021/04/26 06:00:32;;;;;;;4.33;2.60;;;;;;;30.42;16.24;100364.59;115412;1200;103137;-80
2021/04/26 06:03:01;;;;;;;2.73;2.20;;;;;;;30.46;16.07;100373.14;115445;1198;103002;-81
2021/04/26 06:05:28;;;;;;;2.60;2.00;;;;;;;30.54;16.23;100378.50;115449;1199;103011;-79
2021/04/26 06:07:56;;;;;;;3.67;2.10;;;;;;;30.63;15.70;100375.61;115532;1199;103163;-81
2021/04/26 06:10:23;;;;;;;3.80;2.57;;;;;;;30.92;15.18;100371.42;115545;1198;103130;-80
2021/04/26 06:12:51;;;;;;;1.87;1.60;;;;;;;31.20;14.40;100372.59;115443;1200;103011;-80
2021/04/26 06:15:19;;;;;;;3.27;2.40;;;;;;;31.40;14.94;100380.19;115546;1198;103159;-80
2021/04/26 06:17:46;;;;;;;2.40;1.90;;;;;;;31.68;14.86;100383.16;115520;1198;103016;-80
2021/04/26 06:20:14;;;;;;;2.07;1.70;;;;;;;31.48;14.32;100374.75;115578;1190;102463;-81
2021/04/26 06:22:42;;;;;;;3.00;1.30;;;;;;;31.09;13.65;100383.77;115563;1199;101687;-80
2021/04/26 06:25:09;;;;;;;4.30;1.60;;;;;;;31.06;14.15;100385.96;115591;1198;103092;-81
2021/04/26 06:27:37;;;;;;;1.83;1.50;;;;;;;31.16;13.59;100384.72;115543;1199;103028;-80
2021/04/26 06:30:05;;;;;;;1.85;1.50;;;;;;;31.26;13.92;100390.76;115591;1199;103095;-81
2021/04/26 06:32:33;;;;;;;2.55;1.80;;;;;;;31.56;13.36;100380.89;115668;1200;103146;-81
2021/04/26 06:35:00;;;;;;;1.40;1.30;;;;;;;30.95;13.59;100388.06;115490;1198;104316;-80
2021/04/26 06:37:27;;;;;;;2.10;1.20;;;;;;;30.39;13.34;100389.16;115532;1199;101871;-82
2021/04/26 06:39:55;;;;;;;1.77;1.20;;;;;;;30.17;13.82;100385.38;115554;1200;102971;-80
2021/04/26 06:42:23;;;;;;;1.83;1.20;;;;;;;30.31;13.41;100379.24;115354;1199;103236;-79
2021/04/26 06:44:51;;;;;;;2.77;1.10;;;;;;;30.35;13.68;100394.05;115455;1198;103094;-80
2021/04/26 06:47:18;;;;;;;1.35;1.00;;;;;;;30.44;13.19;100384.08;115521;1199;103127;-80
2021/04/26 06:49:45;;;;;;;2.33;1.10;;;;;;;29.97;13.21;100384.86;115425;1199;102992;-81
2021/04/26 06:52:12;;;;;;;4.23;1.30;;;;;;;28.93;13.34;100386.52;115597;1199;103207;-80
2021/04/26 06:54:39;;;;;;;2.25;1.30;;;;;;;27.36;13.50;100384.86;115489;1199;102992;-80
2021/04/26 06:57:07;;;;;;;1.73;1.00;;;;;;;26.38;15.08;100397.13;115484;1199;101366;-81
2021/04/26 06:59:34;;;;;;;9.65;7.75;;;;;;;27.10;14.87;100396.31;115456;1199;102999;-79
2021/04/26 07:02:01;;;;;;;2.53;1.57;;;;;;;27.91;14.82;100385.48;115470;1199;101940;-79
2021/04/26 07:04:28;;;;;;;3.20;1.07;;;;;;;29.02;14.05;100386.35;115455;1198;103092;-79
2021/04/26 07:06:55;;;;;;;2.00;1.17;;;;;;;30.13;13.97;100391.24;115392;1199;103147;-80
2021/04/26 07:09:22;;;;;;;2.63;1.30;;;;;;;30.79;13.04;100388.16;115410;1200;103166;-80
2021/04/26 07:11:50;;;;;;;2.67;1.30;;;;;;;29.57;12.83;100384.91;115517;1198;103005;-81
2021/04/26 07:14:17;;;;;;;3.10;1.20;;;;;;;27.59;13.71;100391.41;115536;1198;102989;-80
2021/04/26 07:16:44;;;;;;;1.60;1.17;;;;;;;25.78;14.29;100390.39;115465;1199;103111;-80
2021/04/26 07:19:12;;;;;;;3.70;1.40;;;;;;;25.16;14.53;100397.84;115609;1197;102993;-81
2021/04/26 07:21:40;;;;;;;2.87;1.57;;;;;;;24.62;14.84;100392.94;115592;1198;103501;-81
2021/04/26 07:24:08;;;;;;;2.30;1.25;;;;;;;23.54;15.05;100396.92;115655;1199;103241;-80
2021/04/26 07:26:36;;;;;;;2.40;1.10;;;;;;;21.82;15.93;100404.43;115616;1199;102774;-80
2021/04/26 07:29:03;;;;;;;1.20;1.10;;;;;;;22.21;16.65;100402.34;115671;1197;103085;-81
2021/04/26 07:31:30;;;;;;;1.50;1.23;;;;;;;22.58;16.63;100392.31;115598;1200;103002;-80
2021/04/26 07:33:58;;;;;;;2.05;1.00;;;;;;;22.57;16.28;100386.15;115606;1199;103131;-80
2021/04/26 07:36:25;;;;;;;1.47;0.80;;;;;;;21.32;15.99;100390.51;115533;1198;103210;-80
2021/04/26 07:38:52;;;;;;;2.67;1.10;;;;;;;19.71;16.41;100394.05;115531;1200;103043;-80
2021/04/26 07:41:19;;;;;;;1.20;0.87;;;;;;;18.30;17.30;100407.52;115572;1199;104016;-81
2021/04/26 07:43:46;;;;;;;2.07;1.70;;;;;;;16.86;18.41;100408.00;115581;1199;103098;-80
2021/04/26 07:46:13;;;;;;;1.53;1.30;;;;;;;15.83;18.91;100416.17;115777;1198;103191;-80
2021/04/26 07:48:40;;;;;;;1.33;1.00;;;;;;;16.41;19.74;100415.76;115580;1199;102900;-80
2021/04/26 07:51:08;;;;;;;1.05;0.80;;;;;;;17.71;19.03;100404.06;115524;1197;103075;-79
2021/04/26 07:53:35;;;;;;;1.93;1.10;;;;;;;19.16;18.36;100400.32;115574;1197;103038;-79
2021/04/26 07:56:02;;;;;;;2.60;1.50;;;;;;;20.49;17.52;100400.97;115500;1199;104188;-79
2021/04/26 07:58:30;;;;;;;1.70;1.50;;;;;;;21.78;17.49;100399.48;115388;1198;103136;-79
2021/04/26 08:01:00;;;;;;;4.27;2.00;;;;;;;22.90;16.03;100397.73;115403;1198;103124;-80
2021/04/26 08:03:27;;;;;;;2.60;1.00;;;;;;;23.93;15.86;100388.24;115430;1198;103076;-80
2021/04/26 08:05:55;;;;;;;1.90;0.90;;;;;;;24.61;15.12;100385.91;115401;1200;103021;-81
2021/04/26 08:08:23;;;;;;;1.33;0.97;;;;;;;25.24;14.86;100384.63;115379;1199;104042;-79
2021/04/26 08:10:50;;;;;;;1.70;0.80;;;;;;;26.12;14.84;100390.73;115589;1197;103191;-79
2021/04/26 08:13:17;;;;;;;1.80;0.90;;;;;;;27.23;14.74;100385.23;115518;1198;103028;-80
2021/04/26 08:15:45;;;;;;;1.08;0.80;;;;;;;28.02;14.04;100373.67;115569;1200;103075;-80
2021/04/26 08:18:12;;;;;;;1.33;0.97;;;;;;;28.12;13.08;100385.11;115546;1199;103146;-80
2021/04/26 08:20:39;;;;;;;3.40;1.40;;;;;;;26.70;12.87;100385.98;115527;1199;103088;-79
2021/04/26 08:23:07;;;;;;;1.27;0.90;;;;;;;24.91;13.29;100382.31;115364;1198;103150;-80
2021/04/26 08:25:34;;;;;;;2.25;0.60;;;;;;;22.92;13.64;100382.49;115359;1197;103055;-80
2021/04/26 08:28:01;;;;;;;0.90;0.60;;;;;;;21.01;14.73;100381.31;115522;1197;103031;-80
2021/04/26 08:30:28;;;;;;;1.27;0.80;;;;;;;19.46;15.60;100389.53;115758;1199;101592;-81
2021/04/26 08:32:55;;;;;;;4.17;1.30;;;;;;;18.14;16.59;100401.50;115644;1199;103082;-80
2021/04/26 08:35:22;;;;;;;1.93;1.30;;;;;;;16.94;17.27;100409.38;115609;1198;103449;-79
2021/04/26 08:37:49;;;;;;;2.67;1.37;;;;;;;16.24;18.17;100403.49;115574;1198;103127;-80
2021/04/26 08:40:17;;;;;;;2.00;1.00;;;;;;;17.00;18.27;100393.22;115363;1199;103079;-80
2021/04/26 08:42:44;;;;;;;4.03;1.10;;;;;;;18.08;18.22;100402.70;115472;1199;103176;-80
2021/04/26 08:45:12;;;;;;;2.20;1.00;;;;;;;19.21;17.68;100383.23;115605;1199;101722;-81
2021/04/26 08:47:41;;;;;;;4.85;2.38;;;;;;;20.42;17.45;100388.25;115569;1199;103076;-80
2021/04/26 08:50:09;;;;;;;1.37;1.20;;;;;;;21.38;16.55;100373.30;115664;1197;103022;-81
2021/04/26 08:52:38;;;;;;;1.47;0.90;;;;;;;21.03;16.22;100375.89;115565;1198;103044;-80
2021/04/26 08:55:07;;;;;;;2.27;0.97;;;;;;;20.09;16.31;100373.73;115330;1200;103019;-79
2021/04/26 08:57:34;;;;;;;2.33;0.80;;;;;;;19.15;16.08;100375.68;115381;1199;103091;-80
2021/04/26 09:00:03;;;;;;;0.97;0.70;;;;;;;18.01;17.15;100377.64;115617;1199;103043;-80
2021/04/26 09:02:54;;;;;;;2.50;0.90;;;;;;;17.03;17.48;100379.86;115593;1197;103562;-79
2021/04/26 09:05:22;;;;;;;;;;;;;;;16.06;17.91;100384.27;115720;1204;102977;-79
2021/04/26 09:07:52;;;;;;;1.15;1.00;;;;;;;15.15;18.64;100388.88;115548;1200;103040;-78
2021/04/26 09:10:41;;;;;;;1.00;0.80;;;;;;;14.36;19.29;100385.55;115384;1199;103096;-79
2021/04/26 09:13:29;;;;;;;2.10;1.10;;;;;;;13.79;20.00;100398.55;115401;1198;103075;-79
2021/04/26 09:15:59;;;;;;;1.50;0.90;;;;;;;14.75;20.63;100390.80;115339;1199;103018;-79
2021/04/26 09:18:48;;;;;;;3.33;2.10;;;;;;;15.92;20.22;100382.34;115391;1199;103047;-80
2021/04/26 09:21:21;;;;;;;3.40;2.70;;;;;;;16.11;19.39;100376.97;115444;1199;103031;-80
2021/04/26 09:24:09;;;;;;;2.10;1.03;;;;;;;15.67;19.02;100376.66;115525;1199;103082;-80
2021/04/26 09:26:36;;;;;;;3.37;1.13;;;;;;;14.98;19.53;100366.06;115500;1198;103044;-80
2021/04/26 09:29:26;;;;;;;2.10;1.20;;;;;;;14.26;19.78;100376.42;115563;1199;103012;-79
2021/04/26 09:32:04;;;;;;;2.03;1.47;;;;;;;13.66;20.67;100380.82;115441;1198;103031;-80
2021/04/26 09:34:46;;;;;;;1.37;1.00;;;;;;;14.34;20.73;100371.66;115433;1198;102989;-81
2021/04/26 09:37:18;;;;;;;1.90;1.00;;;;;;;15.40;20.30;100373.59;115530;1199;103664;-81
2021/04/26 09:40:05;;;;;;;2.20;1.10;;;;;;;16.46;20.07;100375.08;115636;1199;102199;-80
2021/04/26 09:42:57;;;;;;;1.97;0.90;;;;;;;17.69;19.36;100361.95;115665;1198;103117;-81
2021/04/26 09:45:31;;;;;;;2.30;0.70;;;;;;;17.78;18.54;100365.84;115617;1199;103031;-80
2021/04/26 09:48:19;;;;;;;1.13;0.80;;;;;;;17.32;18.35;100357.97;115598;1199;103038;-80
2021/04/26 09:51:02;;;;;;;6.47;3.20;;;;;;;16.72;18.00;100357.89;115542;1197;102966;-81
2021/04/26 09:53:46;;;;;;;3.33;1.20;;;;;;;16.07;18.68;100358.80;115648;1198;101988;-81
2021/04/26 09:56:18;;;;;;;1.77;1.10;;;;;;;15.36;19.10;100356.29;115595;1199;101820;-81
2021/04/26 09:58:54;;;;;;;2.23;1.10;;;;;;;14.68;19.03;100360.48;115561;1199;103070;-80
2021/04/26 10:01:24;;;;;;;1.40;1.10;;;;;;;13.96;19.12;100362.89;115590;1198;103526;-82
2021/04/26 10:03:52;;;;;;;1.63;0.90;;;;;;;13.31;19.79;100359.57;115385;1199;103162;-80
2021/04/26 10:06:24;;;;;;;2.17;0.90;;;;;;;12.86;20.29;100362.23;115552;1199;103009;-81
2021/04/26 10:08:56;;;;;;;0.83;0.80;;;;;;;12.66;20.68;100363.88;115563;1198;103084;-81
2021/04/26 10:11:25;;;;;;;1.53;1.00;;;;;;;12.51;20.97;100368.84;115568;1199;103063;-81
2021/04/26 10:14:15;;;;;;;4.30;1.97;;;;;;;12.40;21.50;100369.27;115569;1199;103050;-79
2021/04/26 10:17:05;;;;;;;2.30;1.67;;;;;;;12.56;22.00;100370.36;115552;1199;103175;-81
2021/04/26 10:19:45;;;;;;;1.57;0.90;;;;;;;13.37;21.99;100366.31;115641;1199;103037;-79
2021/04/26 10:22:14;;;;;;;2.20;0.87;;;;;;;14.04;22.07;100361.64;115395;1198;103082;-82
2021/04/26 10:24:55;;;;;;;3.73;1.10;;;;;;;14.68;21.57;100342.11;115564;1199;103033;-79
2021/04/26 10:27:33;;;;;;;1.57;0.80;;;;;;;14.65;20.34;100343.11;115518;1199;103092;-82
2021/04/26 10:30:03;;;;;;;1.83;1.30;;;;;;;14.35;20.39;100347.97;115598;1198;103072;-81
2021/04/26 10:32:58;;;;;;;1.87;1.03;;;;;;;14.57;20.11;100345.26;115725;1199;103114;-82
2021/04/26 10:35:43;;;;;;;1.47;0.90;;;;;;;14.92;20.27;100340.11;115691;1197;103008;-82
2021/04/26 10:38:37;;;;;;;1.00;0.80;;;;;;;14.97;19.64;100344.20;115502;1199;102989;-83
2021/04/26 10:41:07;;;;;;;1.83;1.20;;;;;;;14.73;20.01;100340.14;115584;1200;103492;-83
2021/04/26 10:43:35;;;;;;;1.23;1.00;;;;;;;14.60;19.95;100333.76;115534;1199;103027;-81
2021/04/26 10:46:14;;;;;;;1.43;1.10;;;;;;;14.53;20.38;100338.42;115577;1199;103091;-80
2021/04/26 10:49:07;;;;;;;1.77;1.10;;;;;;;14.10;20.66;100335.13;115592;1199;103018;-80
2021/04/26 10:51:38;;;;;;;3.90;1.40;;;;;;;13.50;21.00;100343.93;115528;1199;103018;-81
2021/04/26 10:54:07;;;;;;;1.10;0.90;;;;;;;12.87;21.42;100337.77;115585;1198;103081;-81
2021/04/26 10:56:36;;;;;;;4.40;1.00;;;;;;;12.40;22.11;100343.96;115543;1196;103184;-80
2021/04/26 10:59:17;;;;;;;3.33;1.23;;;;;;;12.49;22.74;100353.20;115571;1199;103059;-80
2021/04/26 11:01:49;;;;;;;2.40;1.25;;;;;;;12.71;23.06;100340.98;115705;1199;102985;-80
2021/04/26 11:04:17;;;;;;;3.60;1.40;;;;;;;13.04;22.95;100345.80;115521;1198;103092;-80
2021/04/26 11:07:20;;;;;;;5.15;1.50;;;;;;;13.47;22.58;100338.83;115541;1199;103175;-80
2021/04/26 11:09:49;;;;;;;2.10;1.30;;;;;;;13.90;22.99;100332.56;115364;1198;103127;-80
2021/04/26 11:12:33;;;;;;;1.50;1.07;;;;;;;14.10;21.89;100331.66;115452;1198;102973;-80
2021/04/26 11:15:19;;;;;;;2.00;1.27;;;;;;;13.83;21.97;100331.98;115454;1197;103555;-81
2021/04/26 11:17:48;;;;;;;3.87;1.30;;;;;;;13.36;22.13;100339.27;115612;1198;103542;-82
2021/04/26 11:20:22;;;;;;;2.50;1.20;;;;;;;12.93;22.22;100332.31;115442;1199;103031;-82
2021/04/26 11:22:58;;;;;;;2.43;1.30;;;;;;;12.44;22.76;100347.30;115487;1199;103012;-82
2021/04/26 11:25:39;;;;;;;1.27;1.10;;;;;;;11.94;23.38;100344.80;115439;1199;103031;-82
2021/04/26 11:28:12;;;;;;;3.10;1.40;;;;;;;11.50;23.57;100349.81;115412;1199;102974;-82
2021/04/26 11:30:51;;;;;;;2.60;1.60;;;;;;;11.05;25.48;100338.27;115529;1199;103698;-83
2021/04/26 11:33:19;;;;;;;5.53;2.20;;;;;;;10.43;27.58;100373.25;115429;1199;102915;-83
2021/04/26 11:36:13;;;;;;;4.53;2.00;;;;;;;9.87;28.91;100374.80;115491;1199;102979;-83
2021/04/26 11:38:41;;;;;;;3.40;2.10;;;;;;;9.53;30.63;100372.26;115487;1197;101657;-82